Time;durP1;ratioP1;P1;durP2;ratioP2;P2;SDS_P1;SDS_P2;PMS_P1;PMS_P2;Temp;Humidity;BMP_temperature;BMP_pressure;BME280_temperature;BME280_humidity;BME280_pressure;Samples;Min_cycle;Max_cycle;Signal;HPM_P1;HPM_P2
2022/03/11 00:01:07;;;;;;;4.32;3.17;;;21.60;33.40;;;;;;4995194;28;20445;-58
2022/03/11 00:03:33;;;;;;;3.88;3.58;;;21.60;33.30;;;;;;4993999;28;20046;-58
2022/03/11 00:05:58;;;;;;;3.83;3.30;;;21.60;33.20;;;;;;4994738;28;20050;-59
2022/03/11 00:08:24;;;;;;;4.28;3.80;;;21.60;33.20;;;;;;4995320;28;20060;-58
2022/03/11 00:10:50;;;;;;;3.70;3.40;;;21.60;33.20;;;;;;4991839;28;20739;-58
2022/03/11 00:13:15;;;;;;;3.47;3.17;;;21.60;33.10;;;;;;4994939;28;20077;-58
2022/03/11 00:15:42;;;;;;;3.88;3.58;;;21.50;33.10;;;;;;4992763;28;20383;-58
2022/03/11 00:18:08;;;;;;;4.18;3.78;;;21.50;33.10;;;;;;4994049;28;20038;-58
2022/03/11 00:20:34;;;;;;;3.75;3.25;;;21.50;33.10;;;;;;4994344;28;20050;-58
2022/03/11 00:23:00;;;;;;;4.60;4.20;;;21.50;33.10;;;;;;4996328;28;20069;-58
2022/03/11 00:25:26;;;;;;;3.90;3.60;;;21.50;33.10;;;;;;4994708;28;20497;-58
2022/03/11 00:27:52;;;;;;;3.78;3.47;;;21.40;33.00;;;;;;4992569;28;20108;-58
2022/03/11 00:30:18;;;;;;;3.30;3.00;;;21.40;33.00;;;;;;4995448;28;20132;-57
2022/03/11 00:32:43;;;;;;;3.67;3.38;;;21.50;33.10;;;;;;4993948;28;20054;-58
2022/03/11 00:35:10;;;;;;;3.55;3.25;;;21.40;33.00;;;;;;4995008;28;20061;-58
2022/03/11 00:37:37;;;;;;;3.70;3.40;;;21.40;33.00;;;;;;4998110;28;20408;-59
2022/03/11 00:40:03;;;;;;;3.92;3.63;;;21.40;32.90;;;;;;4994270;28;20045;-59
2022/03/11 00:42:29;;;;;;;4.30;3.50;;;21.40;33.00;;;;;;4995251;28;20050;-59
2022/03/11 00:44:54;;;;;;;3.80;3.50;;;21.40;33.00;;;;;;4994304;28;20053;-60
2022/03/11 00:47:20;;;;;;;3.85;3.45;;;21.40;33.00;;;;;;4993181;28;20059;-58
2022/03/11 00:49:45;;;;;;;3.47;3.17;;;21.40;32.90;;;;;;5000432;28;20054;-58
2022/03/11 00:52:11;;;;;;;3.92;3.53;;;21.40;32.90;;;;;;4993893;28;20483;-59
2022/03/11 00:54:37;;;;;;;3.67;3.38;;;21.30;32.80;;;;;;4992669;28;20877;-58
2022/03/11 00:57:03;;;;;;;4.90;3.30;;;21.30;32.80;;;;;;4993634;28;20137;-59
2022/03/11 00:59:28;;;;;;;3.65;3.35;;;21.30;32.80;;;;;;4992757;28;20119;-59
2022/03/11 01:01:54;;;;;;;3.72;3.25;;;21.30;32.80;;;;;;4993681;28;20153;-58
2022/03/11 01:04:19;;;;;;;3.58;3.28;;;21.30;32.80;;;;;;4995815;28;20038;-59
2022/03/11 01:06:45;;;;;;;3.85;3.45;;;21.30;32.80;;;;;;4994351;28;20108;-58
2022/03/11 01:09:11;;;;;;;3.35;2.95;;;21.20;32.80;;;;;;4993319;28;20146;-58
2022/03/11 01:11:37;;;;;;;3.42;3.13;;;21.20;32.80;;;;;;5009011;28;20046;-58
2022/03/11 01:14:03;;;;;;;3.60;3.30;;;21.20;32.70;;;;;;4993327;28;20094;-59
2022/03/11 01:16:29;;;;;;;3.33;3.03;;;21.20;32.70;;;;;;4992115;28;20529;-60
2022/03/11 01:18:54;;;;;;;3.65;3.35;;;21.20;32.70;;;;;;4992284;28;20081;-59
2022/03/11 01:21:20;;;;;;;3.63;2.92;;;21.20;32.80;;;;;;4991284;28;20042;-59
2022/03/11 01:23:45;;;;;;;3.63;3.33;;;21.10;32.70;;;;;;4994048;28;20064;-59
2022/03/11 01:26:12;;;;;;;3.75;3.40;;;21.20;32.70;;;;;;4992294;28;20114;-59
2022/03/11 01:28:41;;;;;;;3.65;3.35;;;21.10;32.80;;;;;;4994472;28;20180;-58
2022/03/11 01:31:07;;;;;;;5.03;3.03;;;21.10;32.70;;;;;;4992555;28;20050;-59
2022/03/11 01:33:33;;;;;;;3.25;2.88;;;21.20;32.80;;;;;;4998800;28;20061;-59
2022/03/11 01:35:59;;;;;;;3.28;2.97;;;21.10;32.70;;;;;;4994338;28;20038;-59
2022/03/11 01:38:24;;;;;;;3.90;3.17;;;21.10;32.70;;;;;;4983437;28;20521;-58
2022/03/11 01:40:50;;;;;;;4.32;3.35;;;21.10;32.80;;;;;;4991536;28;20842;-59
2022/03/11 01:43:17;;;;;;;3.40;3.10;;;21.10;32.80;;;;;;4991400;28;20077;-59
2022/03/11 01:45:44;;;;;;;3.28;2.92;;;21.10;32.70;;;;;;4994986;28;20122;-59
2022/03/11 01:48:10;;;;;;;3.63;3.22;;;21.00;32.70;;;;;;4993783;28;20450;-59
2022/03/11 01:50:39;;;;;;;3.58;3.28;;;21.00;32.70;;;;;;4993680;28;20062;-58
2022/03/11 01:53:07;;;;;;;3.85;3.00;;;21.00;32.70;;;;;;4993158;28;20504;-58
2022/03/11 01:55:34;;;;;;;3.40;3.10;;;21.00;32.60;;;;;;4993767;28;20454;-58
2022/03/11 01:57:59;;;;;;;3.35;3.05;;;21.00;32.70;;;;;;4993797;28;20046;-59
2022/03/11 02:00:25;;;;;;;3.53;3.00;;;21.00;32.70;;;;;;4993138;28;20105;-59
2022/03/11 02:02:50;;;;;;;3.83;3.42;;;21.00;32.70;;;;;;4992899;28;20045;-59
2022/03/11 02:05:17;;;;;;;3.80;3.50;;;21.00;32.70;;;;;;4992436;28;20073;-59
2022/03/11 02:07:43;;;;;;;3.70;3.10;;;20.90;32.70;;;;;;4992090;28;20046;-59
2022/03/11 02:10:09;;;;;;;3.90;3.50;;;21.00;32.60;;;;;;4994479;28;20092;-58
2022/03/11 02:12:35;;;;;;;3.40;3.10;;;21.00;32.70;;;;;;4991099;28;20050;-57
2022/03/11 02:15:02;;;;;;;4.22;3.30;;;20.90;32.70;;;;;;4992591;28;20090;-58
2022/03/11 02:17:28;;;;;;;3.00;2.80;;;20.90;32.70;;;;;;4992996;28;20115;-59
2022/03/11 02:19:53;;;;;;;3.70;3.40;;;20.90;32.70;;;;;;4992298;28;20054;-58
2022/03/11 02:22:23;;;;;;;3.50;3.20;;;20.90;32.70;;;;;;4992601;28;20046;-58
2022/03/11 02:24:49;;;;;;;3.45;3.15;;;20.90;32.70;;;;;;4990672;28;20081;-59
2022/03/11 02:27:15;;;;;;;3.95;3.55;;;20.90;32.70;;;;;;4990095;28;20125;-58
2022/03/11 02:29:40;;;;;;;3.40;3.10;;;20.90;32.70;;;;;;4990965;28;20148;-58
2022/03/11 02:32:06;;;;;;;3.60;3.30;;;20.90;32.70;;;;;;4994411;28;20050;-58
2022/03/11 02:34:32;;;;;;;3.72;3.33;;;20.90;32.70;;;;;;4993702;28;20176;-58
2022/03/11 02:36:57;;;;;;;3.60;3.30;;;20.80;32.60;;;;;;4995712;28;20292;-58
2022/03/11 02:39:23;;;;;;;3.55;3.25;;;20.80;32.70;;;;;;4998344;28;20051;-58
2022/03/11 02:41:51;;;;;;;3.35;3.05;;;20.80;32.70;;;;;;5010125;28;20042;-58
2022/03/11 02:44:17;;;;;;;4.10;3.70;;;20.80;32.70;;;;;;4996247;28;20081;-58
2022/03/11 02:46:42;;;;;;;3.88;3.58;;;20.80;32.70;;;;;;4995497;28;20066;-59
2022/03/11 02:49:08;;;;;;;4.13;3.75;;;20.80;32.60;;;;;;4995880;28;20061;-59
2022/03/11 02:51:33;;;;;;;4.40;3.42;;;20.80;32.70;;;;;;4996480;28;20054;-58
2022/03/11 02:53:59;;;;;;;3.47;3.08;;;20.80;32.70;;;;;;4994661;28;20038;-59
2022/03/11 02:56:25;;;;;;;3.55;3.22;;;20.80;32.60;;;;;;5000213;28;20058;-58
2022/03/11 02:58:50;;;;;;;3.90;3.50;;;20.80;32.70;;;;;;4993561;28;20057;-58
2022/03/11 03:01:16;;;;;;;4.05;3.65;;;20.70;32.60;;;;;;4990662;28;21044;-58
2022/03/11 03:03:41;;;;;;;4.28;3.58;;;20.70;32.60;;;;;;4991634;28;20042;-58
2022/03/11 03:06:07;;;;;;;4.15;3.65;;;20.70;32.60;;;;;;4993116;28;20049;-58
2022/03/11 03:08:33;;;;;;;3.35;3.05;;;20.70;32.60;;;;;;5010703;28;20046;-58
2022/03/11 03:10:58;;;;;;;3.25;2.88;;;20.70;32.60;;;;;;5001281;28;20057;-60
2022/03/11 03:13:24;;;;;;;3.63;3.33;;;20.70;32.60;;;;;;4996036;28;20061;-58
2022/03/11 03:15:50;;;;;;;3.72;3.42;;;20.70;32.60;;;;;;4995587;28;20046;-59
2022/03/11 03:18:15;;;;;;;4.32;3.72;;;20.70;32.60;;;;;;4996864;28;20046;-58
2022/03/11 03:20:41;;;;;;;3.22;2.92;;;20.70;32.60;;;;;;4994875;28;20054;-59
2022/03/11 03:23:07;;;;;;;3.75;3.20;;;20.70;32.60;;;;;;4996553;28;20061;-59
2022/03/11 03:25:32;;;;;;;3.75;3.42;;;20.60;32.50;;;;;;4996604;28;20069;-58
2022/03/11 03:27:58;;;;;;;4.55;3.75;;;20.60;32.60;;;;;;4995004;28;20081;-59
2022/03/11 03:30:24;;;;;;;3.88;3.50;;;20.60;32.60;;;;;;4995916;28;20077;-58
2022/03/11 03:32:49;;;;;;;4.13;3.30;;;20.60;32.50;;;;;;4995078;28;20497;-59
2022/03/11 03:35:15;;;;;;;3.50;3.15;;;20.60;32.60;;;;;;4996386;28;20046;-58
2022/03/11 03:37:41;;;;;;;3.55;3.22;;;20.60;32.60;;;;;;4979290;28;20546;-59
2022/03/11 03:40:08;;;;;;;3.72;3.42;;;20.60;32.60;;;;;;4995006;28;20113;-58
2022/03/11 03:42:34;;;;;;;4.35;3.95;;;20.60;32.60;;;;;;4997258;28;20787;-58
2022/03/11 03:44:59;;;;;;;3.50;3.17;;;20.50;32.50;;;;;;4994071;28;20506;-59
2022/03/11 03:47:25;;;;;;;3.95;3.55;;;20.60;32.60;;;;;;4990629;28;20552;-58
2022/03/11 03:49:50;;;;;;;4.15;3.53;;;20.60;32.60;;;;;;5000871;28;20133;-59
2022/03/11 03:52:16;;;;;;;3.72;2.92;;;20.60;32.70;;;;;;4994801;28;20137;-58
2022/03/11 03:54:42;;;;;;;3.75;3.30;;;20.60;32.60;;;;;;4993646;28;20058;-58
2022/03/11 03:57:08;;;;;;;3.70;3.30;;;20.50;32.60;;;;;;4994767;28;20394;-58
2022/03/11 03:59:34;;;;;;;4.18;3.65;;;20.50;32.60;;;;;;4993421;28;20046;-58
2022/03/11 04:01:59;;;;;;;4.07;3.45;;;20.50;32.60;;;;;;4993650;28;20542;-59
2022/03/11 04:04:25;;;;;;;3.97;3.67;;;20.50;32.50;;;;;;4995440;28;20054;-58
2022/03/11 04:06:50;;;;;;;4.15;3.33;;;20.50;32.60;;;;;;4994697;28;20049;-58
2022/03/11 04:09:16;;;;;;;3.65;3.35;;;20.50;32.60;;;;;;4995930;28;20132;-58
2022/03/11 04:11:42;;;;;;;3.90;3.60;;;20.50;32.50;;;;;;4993708;28;20050;-59
2022/03/11 04:14:08;;;;;;;4.53;3.55;;;20.50;32.60;;;;;;4993347;28;20068;-58
2022/03/11 04:16:33;;;;;;;3.65;3.35;;;20.50;32.60;;;;;;4994354;28;20306;-58
2022/03/11 04:18:59;;;;;;;4.25;3.67;;;20.50;32.60;;;;;;4996210;28;20526;-59
2022/03/11 04:21:25;;;;;;;4.10;3.80;;;20.50;32.60;;;;;;4992181;28;20069;-59
2022/03/11 04:23:51;;;;;;;5.47;3.58;;;20.40;32.60;;;;;;4994504;28;20090;-58
2022/03/11 04:26:17;;;;;;;3.85;3.45;;;20.40;32.50;;;;;;4996848;28;20062;-58
2022/03/11 04:28:43;;;;;;;4.43;3.75;;;20.50;32.60;;;;;;4994572;28;20054;-59
2022/03/11 04:31:11;;;;;;;5.13;3.97;;;20.40;32.60;;;;;;5008685;28;20050;-58
2022/03/11 04:33:39;;;;;;;3.72;3.42;;;20.40;32.60;;;;;;4995050;28;20092;-58
2022/03/11 04:36:05;;;;;;;4.13;3.72;;;20.40;32.60;;;;;;5008985;28;20853;-58
2022/03/11 04:38:31;;;;;;;4.15;3.75;;;20.40;32.60;;;;;;4995209;28;20070;-58
2022/03/11 04:40:57;;;;;;;4.70;4.05;;;20.40;32.50;;;;;;4993227;28;20050;-58
2022/03/11 04:43:23;;;;;;;4.03;3.47;;;20.40;32.50;;;;;;4994418;28;20041;-58
2022/03/11 04:45:49;;;;;;;4.53;3.92;;;20.40;32.60;;;;;;4995038;28;20042;-58
2022/03/11 04:48:14;;;;;;;4.28;3.70;;;20.40;32.60;;;;;;4992409;28;20772;-59
2022/03/11 04:50:40;;;;;;;4.30;3.90;;;20.40;32.60;;;;;;4990955;28;20058;-59
2022/03/11 04:53:06;;;;;;;4.60;4.13;;;20.40;32.60;;;;;;5007554;28;20120;-59
2022/03/11 04:55:32;;;;;;;4.55;3.58;;;20.40;32.60;;;;;;4994941;28;20542;-58
2022/03/11 04:57:57;;;;;;;4.60;3.95;;;20.30;32.50;;;;;;4994062;28;20046;-58
2022/03/11 05:00:23;;;;;;;5.13;4.07;;;20.30;32.50;;;;;;4992284;28;20572;-59
2022/03/11 05:02:49;;;;;;;4.47;4.03;;;20.40;32.60;;;;;;4995239;28;20074;-59
2022/03/11 05:05:15;;;;;;;3.70;3.40;;;20.30;32.70;;;;;;4998440;28;20042;-58
2022/03/11 05:07:42;;;;;;;4.72;3.90;;;20.30;32.90;;;;;;4991629;28;20042;-59
2022/03/11 05:10:10;;;;;;;3.90;3.53;;;20.30;33.00;;;;;;4993750;28;20041;-59
2022/03/11 05:12:37;;;;;;;4.15;3.38;;;20.30;33.20;;;;;;4992064;28;20129;-59
2022/03/11 05:15:04;;;;;;;4.35;3.95;;;20.30;33.40;;;;;;4993699;28;20042;-59
2022/03/11 05:17:29;;;;;;;4.15;3.78;;;20.30;33.40;;;;;;4992159;28;20116;-59
2022/03/11 05:19:55;;;;;;;5.55;3.75;;;20.30;33.40;;;;;;4989293;28;20050;-59
2022/03/11 05:22:21;;;;;;;4.53;3.88;;;20.30;33.60;;;;;;4991631;28;20078;-58
2022/03/11 05:24:47;;;;;;;4.40;3.78;;;20.30;33.70;;;;;;4990701;28;20108;-58
2022/03/11 05:27:13;;;;;;;4.10;3.70;;;20.20;33.60;;;;;;4989253;28;20078;-59
2022/03/11 05:29:40;;;;;;;5.63;3.85;;;20.20;33.70;;;;;;4988040;28;20597;-59
2022/03/11 05:32:06;;;;;;;4.65;3.78;;;20.20;33.80;;;;;;4990624;28;20054;-58
2022/03/11 05:34:39;;;;;;;3.70;3.40;;;20.20;33.70;;;;;;4989892;28;20034;-58
2022/03/11 05:37:06;;;;;;;4.95;3.67;;;20.30;33.80;;;;;;4991043;28;20088;-58
2022/03/11 05:39:33;;;;;;;3.88;3.58;;;20.20;33.90;;;;;;4990780;28;20054;-58
2022/03/11 05:41:59;;;;;;;4.95;3.95;;;20.20;33.80;;;;;;4993922;28;20060;-58
2022/03/11 05:44:25;;;;;;;5.25;4.00;;;20.20;33.90;;;;;;4993071;28;20043;-58
2022/03/11 05:46:52;;;;;;;4.15;3.75;;;20.20;34.00;;;;;;4982995;28;20045;-58
2022/03/11 05:49:18;;;;;;;5.18;3.92;;;20.20;33.90;;;;;;4990833;28;20057;-57
2022/03/11 05:51:44;;;;;;;5.65;3.85;;;20.20;33.90;;;;;;4993230;28;20764;-58
2022/03/11 05:54:09;;;;;;;5.50;4.68;;;20.20;33.80;;;;;;4992911;28;20430;-58
2022/03/11 05:56:35;;;;;;;4.70;4.20;;;20.20;33.70;;;;;;4990258;28;20141;-58
2022/03/11 05:59:01;;;;;;;4.03;3.60;;;20.20;33.80;;;;;;4992635;28;20931;-57
2022/03/11 06:01:26;;;;;;;4.47;4.07;;;20.10;33.90;;;;;;4991694;28;20042;-58
2022/03/11 06:03:52;;;;;;;4.78;4.20;;;20.20;34.00;;;;;;4993067;28;20041;-58
2022/03/11 06:06:18;;;;;;;4.85;4.05;;;20.10;33.90;;;;;;4998781;28;20069;-58
2022/03/11 06:08:44;;;;;;;4.43;4.03;;;20.10;33.80;;;;;;4995811;28;20584;-58
2022/03/11 06:11:09;;;;;;;5.50;4.28;;;20.10;33.80;;;;;;4997491;28;20052;-58
2022/03/11 06:13:36;;;;;;;5.43;4.30;;;20.10;33.70;;;;;;4997474;28;20085;-58
2022/03/11 06:16:02;;;;;;;4.60;4.20;;;20.10;33.70;;;;;;4998924;28;20034;-58
2022/03/11 06:18:28;;;;;;;4.75;4.28;;;20.20;33.80;;;;;;4998749;28;20041;-58
2022/03/11 06:20:54;;;;;;;5.25;4.18;;;20.10;33.70;;;;;;4994972;28;20045;-58
2022/03/11 06:23:19;;;;;;;4.75;4.30;;;20.10;33.70;;;;;;4996974;28;20521;-58
2022/03/11 06:25:45;;;;;;;5.10;4.35;;;20.10;33.80;;;;;;4996251;28;20053;-58
2022/03/11 06:28:10;;;;;;;5.25;4.65;;;20.10;33.90;;;;;;5013265;28;20050;-58
2022/03/11 06:30:36;;;;;;;5.03;4.63;;;20.20;33.90;;;;;;5001402;28;20050;-57
2022/03/11 06:33:02;;;;;;;5.30;4.68;;;20.10;34.00;;;;;;4998949;28;20405;-57
2022/03/11 06:35:27;;;;;;;4.70;4.20;;;20.20;34.10;;;;;;4995149;28;20058;-57
2022/03/11 06:37:54;;;;;;;6.60;4.85;;;20.20;34.20;;;;;;4998847;28;20044;-58
2022/03/11 06:40:21;;;;;;;5.35;4.85;;;20.20;34.40;;;;;;4998977;28;20169;-58
2022/03/11 06:42:48;;;;;;;9.07;5.43;;;20.20;34.50;;;;;;4999814;28;20045;-58
2022/03/11 06:45:15;;;;;;;5.95;4.95;;;20.20;34.50;;;;;;5000937;28;20273;-57
2022/03/11 06:47:45;;;;;;;5.65;5.00;;;20.20;34.60;;;;;;4997233;28;20092;-57
2022/03/11 06:50:11;;;;;;;5.93;5.28;;;20.20;34.50;;;;;;4994802;28;20049;-58
2022/03/11 06:52:36;;;;;;;13.13;4.95;;;20.20;34.40;;;;;;4995131;28;20058;-58
2022/03/11 06:55:03;;;;;;;5.65;5.15;;;20.20;35.20;;;;;;4998965;28;20498;-58
2022/03/11 06:57:30;;;;;;;5.80;5.20;;;20.20;34.30;;;;;;4993787;28;20516;-67
2022/03/11 06:59:56;;;;;;;7.10;5.35;;;20.30;34.40;;;;;;4994692;28;20644;-57
2022/03/11 07:02:21;;;;;;;5.60;5.10;;;20.30;34.20;;;;;;4976210;28;20061;-58
2022/03/11 07:04:47;;;;;;;5.65;5.13;;;20.30;34.30;;;;;;4994899;28;20405;-58
2022/03/11 07:07:13;;;;;;;5.88;5.35;;;20.30;34.30;;;;;;4991411;28;20137;-58
2022/03/11 07:09:38;;;;;;;5.50;5.05;;;20.30;34.20;;;;;;4995545;28;20054;-57
2022/03/11 07:12:04;;;;;;;6.18;5.53;;;20.30;34.10;;;;;;4991280;28;20058;-58
2022/03/11 07:14:35;;;;;;;5.43;4.93;;;20.30;34.10;;;;;;4994519;28;20746;-59
2022/03/11 07:17:05;;;;;;;4.97;4.40;;;20.30;34.20;;;;;;4995323;28;20042;-58
2022/03/11 07:19:31;;;;;;;5.55;5.05;;;20.30;34.30;;;;;;4997368;28;20042;-58
2022/03/11 07:22:04;;;;;;;6.15;4.85;;;20.40;34.30;;;;;;4995286;28;20048;-59
2022/03/11 07:24:31;;;;;;;4.88;4.38;;;20.40;34.30;;;;;;4993426;28;20045;-57
2022/03/11 07:26:57;;;;;;;5.30;4.80;;;20.40;35.00;;;;;;4996971;28;20242;-57
2022/03/11 07:29:22;;;;;;;5.40;4.90;;;20.40;34.30;;;;;;4995330;28;20545;-58
2022/03/11 07:31:48;;;;;;;5.55;4.97;;;20.40;34.10;;;;;;4995682;28;20077;-58
2022/03/11 07:34:14;;;;;;;5.25;4.75;;;20.40;34.20;;;;;;4994176;28;20133;-58
2022/03/11 07:36:40;;;;;;;5.05;4.55;;;20.40;34.10;;;;;;4994408;28;20150;-57
2022/03/11 07:39:08;;;;;;;6.22;5.45;;;20.40;34.10;;;;;;4995857;28;20163;-58
2022/03/11 07:41:35;;;;;;;6.05;5.18;;;20.40;34.00;;;;;;4995869;28;20181;-58
2022/03/11 07:44:01;;;;;;;5.70;5.10;;;20.40;34.00;;;;;;4993826;28;20115;-58
2022/03/11 07:46:27;;;;;;;6.03;5.43;;;20.50;34.00;;;;;;4994206;28;20057;-57
2022/03/11 07:48:53;;;;;;;5.20;4.70;;;20.50;34.00;;;;;;4995589;28;20058;-57
2022/03/11 07:51:19;;;;;;;5.93;5.30;;;20.40;33.90;;;;;;5001845;28;20045;-57
2022/03/11 07:53:46;;;;;;;5.35;4.85;;;20.50;33.80;;;;;;4997455;28;20050;-58
2022/03/11 07:56:12;;;;;;;5.43;4.93;;;20.50;33.80;;;;;;4995193;28;20053;-58
2022/03/11 07:58:39;;;;;;;5.80;5.25;;;20.50;33.90;;;;;;4994017;28;20125;-58
2022/03/11 08:01:07;;;;;;;5.68;5.18;;;20.50;33.80;;;;;;5008069;28;20065;-58
2022/03/11 08:03:33;;;;;;;6.20;5.60;;;20.50;33.80;;;;;;4995571;28;20425;-57
2022/03/11 08:06:00;;;;;;;6.20;5.60;;;20.50;33.70;;;;;;4994681;28;20456;-58
2022/03/11 08:08:26;;;;;;;5.97;5.38;;;20.50;33.70;;;;;;4994405;28;20103;-58
2022/03/11 08:10:54;;;;;;;5.70;5.10;;;20.50;33.70;;;;;;4994081;28;20052;-58
2022/03/11 08:13:20;;;;;;;6.43;5.78;;;20.50;33.80;;;;;;4993744;28;20061;-59
2022/03/11 08:15:46;;;;;;;5.55;5.05;;;20.50;33.80;;;;;;4993619;28;20042;-58
2022/03/11 08:18:11;;;;;;;5.75;5.15;;;20.50;33.80;;;;;;4996082;28;20053;-58
2022/03/11 08:20:37;;;;;;;6.10;5.53;;;20.50;33.90;;;;;;4995932;28;20048;-57
2022/03/11 08:23:03;;;;;;;6.10;5.47;;;20.50;34.00;;;;;;4993703;28;20122;-57
2022/03/11 08:25:28;;;;;;;8.60;5.15;;;20.60;34.00;;;;;;4992462;28;20042;-57
2022/03/11 08:27:56;;;;;;;5.47;4.93;;;20.60;34.10;;;;;;4993594;28;20441;-59
2022/03/11 08:30:22;;;;;;;5.68;4.90;;;20.60;34.20;;;;;;4991932;28;20072;-58
2022/03/11 08:32:48;;;;;;;6.72;5.18;;;20.60;34.20;;;;;;4989329;28;20421;-57
2022/03/11 08:35:14;;;;;;;6.28;5.68;;;20.60;34.20;;;;;;4993211;28;20040;-57
2022/03/11 08:37:40;;;;;;;5.68;4.78;;;20.60;34.30;;;;;;4991201;28;20750;-59
2022/03/11 08:40:07;;;;;;;5.20;4.68;;;20.60;34.40;;;;;;4991687;28;20537;-58
2022/03/11 08:42:34;;;;;;;7.00;4.90;;;20.60;34.50;;;;;;4990787;28;20055;-58
2022/03/11 08:45:00;;;;;;;5.47;4.97;;;20.60;34.50;;;;;;4993880;28;20125;-58
2022/03/11 08:47:26;;;;;;;6.10;4.75;;;20.60;34.50;;;;;;4990404;28;20520;-58
2022/03/11 08:49:52;;;;;;;5.60;5.10;;;20.60;34.50;;;;;;4993243;28;20132;-57
2022/03/11 08:52:19;;;;;;;5.47;4.60;;;20.60;34.60;;;;;;4993377;28;20120;-58
2022/03/11 08:54:45;;;;;;;4.82;4.18;;;20.60;34.50;;;;;;4994144;28;20053;-57
2022/03/11 08:57:11;;;;;;;5.28;4.78;;;20.60;34.60;;;;;;4993992;28;20512;-57
2022/03/11 08:59:36;;;;;;;5.97;5.32;;;20.60;34.50;;;;;;4992872;28;20041;-57
2022/03/11 09:02:03;;;;;;;5.63;5.07;;;20.60;34.50;;;;;;4993330;28;20490;-57
2022/03/11 09:04:28;;;;;;;6.78;5.13;;;20.60;34.60;;;;;;4992474;28;20041;-57
2022/03/11 09:06:54;;;;;;;8.95;4.80;;;20.70;34.60;;;;;;4994056;28;20115;-58
2022/03/11 09:09:19;;;;;;;6.03;5.10;;;20.60;34.50;;;;;;4993152;28;20097;-58
2022/03/11 09:11:45;;;;;;;6.82;4.80;;;20.70;34.60;;;;;;4994416;28;20056;-58
2022/03/11 09:14:11;;;;;;;5.63;5.10;;;20.70;34.50;;;;;;4996911;28;20104;-58
2022/03/11 09:16:37;;;;;;;5.63;4.80;;;20.60;34.50;;;;;;4992808;28;20058;-58
2022/03/11 09:19:03;;;;;;;5.95;5.40;;;20.70;34.60;;;;;;4968098;28;20038;-58
2022/03/11 09:21:29;;;;;;;5.57;4.97;;;20.70;34.80;;;;;;4994305;28;20112;-58
2022/03/11 09:23:55;;;;;;;6.07;4.57;;;20.70;35.00;;;;;;4992543;28;20589;-58
2022/03/11 09:26:20;;;;;;;5.50;4.80;;;20.70;35.10;;;;;;4992831;28;20050;-58
2022/03/11 09:28:46;;;;;;;5.93;4.70;;;20.70;35.20;;;;;;4991637;28;20050;-58
2022/03/11 09:31:12;;;;;;;6.82;5.45;;;20.70;35.20;;;;;;4992677;28;20064;-57
2022/03/11 09:33:39;;;;;;;5.40;4.80;;;20.70;35.20;;;;;;5006065;28;20584;-58
2022/03/11 09:36:05;;;;;;;5.55;4.97;;;20.70;35.30;;;;;;5006383;28;20058;-58
2022/03/11 09:38:31;;;;;;;6.63;5.05;;;20.70;35.30;;;;;;4992904;28;20402;-58
2022/03/11 09:40:58;;;;;;;6.72;5.97;;;20.80;35.60;;;;;;4987192;28;20046;-59
2022/03/11 09:43:25;;;;;;;7.18;5.70;;;20.70;35.80;;;;;;5005539;28;20132;-57
2022/03/11 09:45:51;;;;;;;6.13;5.53;;;20.80;36.10;;;;;;4995200;28;20044;-58
2022/03/11 09:48:17;;;;;;;7.28;6.57;;;20.80;36.30;;;;;;4991035;28;20061;-58
2022/03/11 09:50:44;;;;;;;7.15;6.45;;;20.80;36.40;;;;;;4989895;28;20046;-58
2022/03/11 09:53:11;;;;;;;6.63;6.03;;;20.80;36.50;;;;;;4990689;28;20046;-58
2022/03/11 09:55:38;;;;;;;6.47;5.78;;;20.80;36.50;;;;;;4990055;28;20061;-58
2022/03/11 09:58:04;;;;;;;9.68;6.03;;;20.80;36.60;;;;;;4993761;28;20589;-59
2022/03/11 10:00:29;;;;;;;7.07;6.38;;;20.80;36.40;;;;;;4993319;28;20145;-58
2022/03/11 10:02:55;;;;;;;8.02;5.85;;;20.80;36.20;;;;;;4990677;28;20042;-58
2022/03/11 10:05:22;;;;;;;6.55;5.45;;;20.80;36.40;;;;;;4991206;28;20365;-57
2022/03/11 10:08:05;;;;;;;6.18;5.60;;;20.80;36.50;;;;;;4989324;28;20086;-57
2022/03/11 10:10:31;;;;;;;6.28;5.25;;;20.80;36.40;;;;;;4990076;28;20052;-58
2022/03/11 10:12:57;;;;;;;6.85;5.60;;;20.80;36.40;;;;;;5003185;28;20178;-58
2022/03/11 10:15:28;;;;;;;6.70;5.60;;;20.80;36.30;;;;;;4991280;28;20050;-57
2022/03/11 10:17:55;;;;;;;6.72;5.53;;;20.80;36.20;;;;;;5003448;28;20591;-58
2022/03/11 10:20:21;;;;;;;5.82;5.25;;;20.80;36.10;;;;;;4992886;28;20053;-58
2022/03/11 10:22:46;;;;;;;6.63;5.47;;;20.80;36.10;;;;;;4991200;28;20544;-58
2022/03/11 10:25:13;;;;;;;5.93;5.25;;;20.80;36.00;;;;;;4992457;28;20542;-58
2022/03/11 10:28:02;;;;;;;6.03;5.38;;;20.80;35.90;;;;;;4992668;28;20070;-57
2022/03/11 10:30:30;;;;;;;6.15;5.55;;;20.80;35.80;;;;;;4988893;28;20679;-57
2022/03/11 10:32:58;;;;;;;7.03;6.32;;;20.80;35.80;;;;;;4989456;28;20057;-58
2022/03/11 10:35:30;;;;;;;7.32;6.30;;;20.80;35.70;;;;;;4992017;28;20053;-58
2022/03/11 10:38:06;;;;;;;6.93;5.80;;;20.80;35.50;;;;;;4992889;28;20494;-58
2022/03/11 10:40:33;;;;;;;6.00;5.45;;;20.80;35.40;;;;;;4992447;28;20076;-59
2022/03/11 10:43:13;;;;;;;7.07;5.85;;;20.80;35.30;;;;;;4990884;28;20068;-59
2022/03/11 10:45:46;;;;;;;7.00;6.30;;;20.80;35.20;;;;;;4990565;28;20062;-58
2022/03/11 10:48:12;;;;;;;7.03;5.40;;;20.80;35.20;;;;;;4989899;28;20038;-58
2022/03/11 10:50:38;;;;;;;6.70;5.10;;;20.80;35.10;;;;;;4991605;28;20132;-61
2022/03/11 10:53:08;;;;;;;6.22;5.63;;;20.80;35.00;;;;;;4998438;28;20058;-57
2022/03/11 10:55:34;;;;;;;6.35;5.60;;;20.80;35.00;;;;;;4995452;28;20065;-58
2022/03/11 10:58:05;;;;;;;6.75;5.68;;;20.80;34.90;;;;;;4997350;28;20038;-59
2022/03/11 11:00:39;;;;;;;;;;;20.80;34.80;;;;;;5002862;28;20084;-58
2022/03/11 11:03:08;;;;;;;6.57;5.32;;;20.80;34.70;;;;;;4992085;28;19930;-58
2022/03/11 11:05:35;;;;;;;6.30;5.70;;;20.80;35.00;;;;;;4992223;28;20053;-58
2022/03/11 11:08:02;;;;;;;7.70;6.03;;;20.80;35.30;;;;;;4995758;28;20502;-58
2022/03/11 11:10:30;;;;;;;8.10;5.45;;;20.80;35.60;;;;;;4996246;28;20045;-59
2022/03/11 11:12:55;;;;;;;6.40;5.80;;;20.80;35.60;;;;;;4993775;28;20086;-58
2022/03/11 11:15:21;;;;;;;6.95;5.80;;;20.80;36.40;;;;;;4994534;28;20121;-58
2022/03/11 11:17:49;;;;;;;6.80;5.57;;;20.80;35.60;;;;;;4993318;28;20034;-58
2022/03/11 11:20:24;;;;;;;8.15;6.38;;;20.80;35.60;;;;;;4993885;28;20065;-58
2022/03/11 11:22:52;;;;;;;8.82;7.10;;;20.80;35.70;;;;;;4995462;28;20128;-58
2022/03/11 11:25:22;;;;;;;8.48;7.25;;;20.80;35.80;;;;;;4995566;28;20052;-59
2022/03/11 11:27:49;;;;;;;11.57;8.18;;;20.80;35.70;;;;;;4996571;28;20050;-66
2022/03/11 11:30:22;;;;;;;11.30;8.63;;;20.80;35.80;;;;;;4994825;28;20493;-59
2022/03/11 11:32:48;;;;;;;13.05;9.05;;;20.80;35.70;;;;;;4996718;28;20058;-58
2022/03/11 11:35:38;;;;;;;10.35;8.60;;;20.80;35.70;;;;;;4992433;28;20157;-58
2022/03/11 11:38:24;;;;;;;10.18;8.27;;;20.80;35.70;;;;;;4997813;28;20053;-59
2022/03/11 11:40:50;;;;;;;11.70;8.40;;;20.80;35.80;;;;;;4995751;28;20054;-58
2022/03/11 11:43:25;;;;;;;12.38;7.97;;;20.80;35.70;;;;;;4995741;28;20041;-59
2022/03/11 11:45:54;;;;;;;8.60;7.38;;;20.80;35.80;;;;;;4996370;28;20064;-59
2022/03/11 11:48:35;;;;;;;10.15;7.70;;;20.80;35.80;;;;;;4994186;28;20050;-58
2022/03/11 11:51:05;;;;;;;;;;;20.80;35.80;;;;;;4995044;28;20053;-58
2022/03/11 11:53:32;;;;;;;9.27;6.88;;;20.80;35.80;;;;;;4995094;28;19976;-59
2022/03/11 11:55:58;;;;;;;9.25;6.65;;;20.70;35.90;;;;;;5000515;28;20135;-59
2022/03/11 11:58:24;;;;;;;8.23;7.32;;;20.80;36.00;;;;;;4995576;28;20132;-59
2022/03/11 12:00:57;;;;;;;16.10;7.18;;;20.80;35.90;;;;;;4994038;28;20128;-58
2022/03/11 12:03:49;;;;;;;13.10;7.15;;;20.80;35.90;;;;;;4994767;28;20550;-59
2022/03/11 12:06:51;;;;;;;7.45;6.50;;;20.80;35.90;;;;;;4988247;28;20112;-59
2022/03/11 12:09:42;;;;;;;9.02;7.38;;;20.80;35.70;;;;;;4995870;28;20077;-58
2022/03/11 12:12:30;;;;;;;7.20;6.50;;;20.80;35.70;;;;;;4995017;28;20054;-58
2022/03/11 12:15:04;;;;;;;6.63;5.93;;;20.80;35.70;;;;;;5002560;28;20081;-58
2022/03/11 12:17:36;;;;;;;7.20;6.50;;;20.80;35.80;;;;;;4994632;28;20049;-58
2022/03/11 12:20:21;;;;;;;8.48;6.80;;;20.80;35.90;;;;;;4992228;28;20081;-58
2022/03/11 12:23:00;;;;;;;10.45;6.63;;;20.80;36.00;;;;;;4996185;28;20042;-58
2022/03/11 12:25:28;;;;;;;7.95;7.00;;;20.80;36.00;;;;;;4993261;28;20112;-58
2022/03/11 12:28:18;;;;;;;7.28;6.57;;;20.80;36.00;;;;;;4995218;28;20050;-59
2022/03/11 12:30:46;;;;;;;6.72;6.13;;;20.80;36.10;;;;;;4992168;28;20201;-59
2022/03/11 12:33:23;;;;;;;6.93;6.22;;;20.80;36.10;;;;;;5000201;28;20043;-59
2022/03/11 12:35:52;;;;;;;7.03;6.32;;;20.80;36.20;;;;;;4992509;28;20049;-58
2022/03/11 12:38:21;;;;;;;7.38;6.45;;;20.80;36.30;;;;;;4994983;28;20401;-59
2022/03/11 12:40:48;;;;;;;6.97;5.90;;;20.80;36.30;;;;;;4993022;28;20117;-59
2022/03/11 12:43:15;;;;;;;8.90;6.18;;;20.80;36.30;;;;;;4995346;28;20047;-58
2022/03/11 12:45:46;;;;;;;6.85;6.15;;;20.80;36.20;;;;;;4994894;28;20555;-58
2022/03/11 12:48:15;;;;;;;6.53;5.73;;;20.90;36.20;;;;;;4994610;28;20073;-59